Terminal Aerodrome Forecast
Issued by NWS

Home | Current Version | Previous Version | Text Only | Print | Product List | Glossary On
Versions: 1 2 3 4 5 6 7 8 9 10 11 12
000
FTUS42 TJSJ 161700 RRA
TAFJMZ
TAF
TJMZ 161739Z 1618/1718 31010KT P6SM VCSH SCT025 BKN040 BKN080
      TEMPO 1618/1622 VRB12G18KT 5SM SHRA BKN025
     FM162230 06006KT P6SM FEW030 SCT070
      AMD NOT SKED 1623/1712=

USA.gov is the U.S. government's official web portal to all federal, state and local government web resources and services.